Sugar Land Regional Airport
KSGR : rendu visible

Aérodrome :











RETROUVEZ-NOUS SUR...

 
LOGIN :

S'inscrire | Disclaimer

   EN    FR    IT 

 









Légende :    VFR   VFR Marginal   IFR   IFR Intensif   IFR Très Intensif
Visi : 
Plafond : 
>= 8 km
>= 3000ft
5 à 8 km
1000 à 3000 ft
1500m à 5 km
500 à 1000 ft
800 à 1500m
200 à 500 ft
< 800m
< 200 ft
Symboles :   Orages  Brouillard  Fortes neiges  Fortes précipitations  Vent > 20 kt






- Altitude de l'aérodrome : 82 ft


KSGR - Sugar Land Regional

DERNIER METAR :
  • 190353Z AUTO 01014G21KT 10SM FEW075 BKN095 16/10 A3026 RMK AO2 SLP249 T01610100

METARs EXPIRÉS :
  • 190253Z 36010KT 10SM OVC060 17/12 A3024 RMK AO2 SLP241 T01720117 51025
  • 190153Z 36010KT 10SM BKN055 OVC080 18/13 A3022 RMK AO2 SLP234 T01830128

TAF KSGR
Valide du 19 à 00h jusqu'au 20 à 00h UTC


182326Z 1900/1924 36012KT P6SM SCT025 OVC070
FM190800 02012KT P6SM SCT080
FM191200 02014KT P6SM SKC
FM192300 03007KT P6SM SKC



MET'MAP, la Météo Aéronautique d'un coup d'oeil ! - Copyright ORBIFLY Décembre 2007 - Disclaimer

ORBIFLY MET'MAP TEAM :

Programmation & Développement : Alexandra Zaïnal
Sur une idée originale de : Baudouin d'Aumeries
Assistance à la programmation : Marc-Olivier Méhu
Soutien technique & logistique : Manuel Goepfert

Contact : metmap@orbifly.com




SOURCES & CREDITS :

   NOAA       Earth
Advisory